This is the latest recevied weather packets stored in our database for station/object KD2ZLA. If no packets are shown the sender has not sent any weather packets the latest 10 day(s).
| Time | Temp. | Humidity | Pressure | Rain* | Wind** | Luminosity | Snow |
|---|---|---|---|---|---|---|---|
| 1777433570 | 15.56° C | 42% | 1012.9 hPa | 0 mm | - | 0 W/m² | - |
| 1777433264 | 15.56° C | 42% | 1012.8 hPa | 0 mm | - | 0 W/m² | - |
| 1777432962 | 15.56° C | 41% | 1012.7 hPa | 0 mm | - | 0 W/m² | - |
| 1777432661 | 15.56° C | 42% | 1012.8 hPa | 0 mm | - | 0 W/m² | - |
| 1777432358 | 15.56° C | 41% | 1012.8 hPa | 0 mm | - | 0 W/m² | - |
| 1777432058 | 15.56° C | 41% | 1012.9 hPa | 0 mm | - | 0 W/m² | - |
| 1777431754 | 15.56° C | 41% | 1012.8 hPa | 0 mm | - | 0 W/m² | - |
| 1777431450 | 15.56° C | 40% | 1012.9 hPa | 0 mm | - | 0 W/m² | - |
| 1777431147 | 15.56° C | 40% | 1013 hPa | 0 mm | - | 0 W/m² | - |
| 1777430235 | 16.11° C | 39% | 1012.7 hPa | 0 mm | - | 0 W/m² | - |
| 1777429023 | 15.56° C | 38% | 1013.2 hPa | 0 mm | - | 0 W/m² | - |
| 1777425987 | 16.67° C | 37% | 1013.2 hPa | 0 mm | - | 0 W/m² | - |
| 1777425687 | 16.67° C | 37% | 1013.1 hPa | 0 mm | - | 0 W/m² | - |
| 1777424776 | 16.67° C | 38% | 1013 hPa | 0 mm | - | 0 W/m² | - |
| 1777415368 | 20° C | 30% | 1012.4 hPa | 0 mm | - | 86 W/m² | - |
| 1777414162 | 20.56° C | 31% | 1012.3 hPa | 0 mm | - | 108 W/m² | - |
| 1777410826 | 20.56° C | 28% | 1012.7 hPa | 0 mm | - | 85 W/m² | - |
| 1777410225 | 20.56° C | 27% | 1012.5 hPa | 0 mm | - | 112 W/m² | - |
| 1777409920 | 20.56° C | 27% | 1012.8 hPa | 0 mm | - | 118 W/m² | - |
| 1777408705 | 20.56° C | 28% | 1013 hPa | 0 mm | - | 139 W/m² | - |
| 1777408401 | 20.56° C | 28% | 1013.2 hPa | 0 mm | - | 145 W/m² | - |
| 1777408100 | 20.56° C | 27% | 1013.1 hPa | 0 mm | - | 166 W/m² | - |
| 1777406274 | 21.11° C | 29% | 1013.4 hPa | 0 mm | - | 174 W/m² | - |
| 1777405366 | 21.11° C | 29% | 1013.5 hPa | 0 mm | - | 261 W/m² | - |
| 1777405062 | 21.11° C | 29% | 1013.7 hPa | 0 mm | - | 273 W/m² | - |
* Rain latest hour (hover to see other rain measurements)
** Current wind speed in m/s (hover to see current wind gust speed)